Time,TemperatureF,DewpointF,PressureIn,WindDirection,WindDirectionDegrees,WindSpeedMPH,WindSpeedGustMPH,Humidity,HourlyPrecipIn,Conditions,Clouds,dailyrainin,SolarRadiationWatts/m^2,SoftwareType,DateUTC
2013-03-08 00:02:00,59.4,28.0,29.81,SE,139,0.0,2.0,30,0.00,,,0.00,0,LWC V2.00 B727,2013-03-08 07:02:00,
2013-03-08 00:07:00,59.0,28.4,29.81,SE,138,0.0,2.0,31,0.00,,,0.00,0,LWC V2.00 B727,2013-03-08 07:07:00,
2013-03-08 00:12:00,58.9,28.3,29.81,East,94,1.0,3.0,31,0.00,,,0.00,0,LWC V2.00 B727,2013-03-08 07:12:00,
2013-03-08 00:17:00,58.7,28.1,29.81,East,92,1.0,3.0,31,0.00,,,0.00,0,LWC V2.00 B727,2013-03-08 07:17:00,
2013-03-08 00:22:00,58.8,28.2,29.80,East,92,1.0,1.0,31,0.00,,,0.00,0,LWC V2.00 B727,2013-03-08 07:22:00,
2013-03-08 00:27:00,58.7,28.9,29.80,East,92,0.0,1.0,32,0.00,,,0.00,0,LWC V2.00 B727,2013-03-08 07:27:00,
2013-03-08 00:32:00,58.6,28.8,29.80,East,92,0.0,0.0,32,0.00,,,0.00,0,LWC V2.00 B727,2013-03-08 07:32:00,
2013-03-08 00:37:00,58.6,28.8,29.80,East,92,0.0,1.0,32,0.00,,,0.00,0,LWC V2.00 B727,2013-03-08 07:37:00,
2013-03-08 00:42:00,58.5,28.7,29.80,East,92,0.0,0.0,32,0.00,,,0.00,0,LWC V2.00 B727,2013-03-08 07:42:00,
2013-03-08 00:47:00,58.5,28.7,29.80,East,92,0.0,0.0,32,0.00,,,0.00,0,LWC V2.00 B727,2013-03-08 07:47:00,
2013-03-08 00:52:00,58.7,28.9,29.80,East,92,0.0,0.0,32,0.00,,,0.00,0,LWC V2.00 B727,2013-03-08 07:52:00,
2013-03-08 00:57:00,58.7,28.1,29.79,East,92,0.0,1.0,31,0.00,,,0.00,0,LWC V2.00 B727,2013-03-08 07:57:00,
2013-03-08 01:02:00,58.7,28.9,29.80,East,92,0.0,0.0,32,0.00,,,0.00,0,LWC V2.00 B727,2013-03-08 08:02:00,
2013-03-08 01:07:00,58.9,28.3,29.80,East,92,0.0,0.0,31,0.00,,,0.00,0,LWC V2.00 B727,2013-03-08 08:07:00,
2013-03-08 01:12:00,59.2,28.6,29.80,East,92,0.0,0.0,31,0.00,,,0.00,0,LWC V2.00 B727,2013-03-08 08:12:00,
2013-03-08 01:17:00,59.1,28.5,29.80,East,92,0.0,0.0,31,0.00,,,0.00,0,LWC V2.00 B727,2013-03-08 08:17:00,
2013-03-08 01:22:00,59.0,29.2,29.80,East,92,0.0,0.0,32,0.00,,,0.00,0,LWC V2.00 B727,2013-03-08 08:22:00,
2013-03-08 01:27:00,58.6,28.8,29.80,East,92,0.0,1.0,32,0.00,,,0.00,0,LWC V2.00 B727,2013-03-08 08:27:00,
2013-03-08 01:32:00,58.0,29.1,29.80,East,92,2.0,3.0,33,0.00,,,0.00,0,LWC V2.00 B727,2013-03-08 08:32:00,
2013-03-08 01:37:00,57.6,30.8,29.79,East,91,0.0,2.0,36,0.00,,,0.00,0,LWC V2.00 B727,2013-03-08 08:37:00,
2013-03-08 01:42:00,57.4,30.7,29.79,East,90,0.0,2.0,36,0.00,,,0.00,0,LWC V2.00 B727,2013-03-08 08:42:00,
2013-03-08 01:47:00,57.3,30.6,29.79,East,90,2.0,2.0,36,0.00,,,0.00,0,LWC V2.00 B727,2013-03-08 08:47:00,
2013-03-08 01:52:00,57.4,30.7,29.79,East,90,0.0,0.0,36,0.00,,,0.00,0,LWC V2.00 B727,2013-03-08 08:52:00,
2013-03-08 01:57:00,57.5,30.1,29.79,East,90,0.0,1.0,35,0.00,,,0.00,0,LWC V2.00 B727,2013-03-08 08:57:00,
2013-03-08 02:02:00,58.0,30.5,29.79,East,90,0.0,1.0,35,0.00,,,0.00,0,LWC V2.00 B727,2013-03-08 09:02:00,
2013-03-08 02:07:00,58.6,29.6,29.79,East,90,0.0,1.0,33,0.00,,,0.00,0,LWC V2.00 B727,2013-03-08 09:07:00,
2013-03-08 02:12:00,59.0,30.7,29.78,East,91,0.0,1.0,34,0.00,,,0.00,0,LWC V2.00 B727,2013-03-08 09:12:00,
2013-03-08 02:17:00,58.8,29.8,29.78,East,91,0.0,0.0,33,0.00,,,0.00,0,LWC V2.00 B727,2013-03-08 09:17:00,
2013-03-08 02:22:00,59.4,31.0,29.78,East,91,0.0,0.0,34,0.00,,,0.00,0,LWC V2.00 B727,2013-03-08 09:22:00,
2013-03-08 02:27:00,59.0,30.7,29.77,East,90,0.0,0.0,34,0.00,,,0.00,0,LWC V2.00 B727,2013-03-08 09:27:00,
2013-03-08 02:32:00,59.0,30.7,29.77,East,91,0.0,0.0,34,0.00,,,0.00,0,LWC V2.00 B727,2013-03-08 09:32:00,
2013-03-08 02:37:00,59.1,30.0,29.77,East,90,0.0,0.0,33,0.00,,,0.00,0,LWC V2.00 B727,2013-03-08 09:37:00,
2013-03-08 02:42:00,59.0,30.7,29.76,East,90,0.0,0.0,34,0.00,,,0.00,0,LWC V2.00 B727,2013-03-08 09:42:00,
2013-03-08 02:47:00,59.2,30.1,29.76,South,190,3.0,3.0,33,0.00,,,0.00,0,LWC V2.00 B727,2013-03-08 09:47:00,
2013-03-08 02:52:00,59.0,30.7,29.76,WSW,240,3.0,8.0,34,0.00,,,0.00,0,LWC V2.00 B727,2013-03-08 09:52:00,
2013-03-08 02:57:00,59.3,30.9,29.76,SW,223,3.0,6.0,34,0.00,,,0.00,0,LWC V2.00 B727,2013-03-08 09:57:00,
2013-03-08 03:02:00,59.2,30.8,29.76,SW,232,3.0,4.0,34,0.00,,,0.00,0,LWC V2.00 B727,2013-03-08 10:02:00,
2013-03-08 03:07:00,59.1,30.8,29.76,SW,232,2.0,6.0,34,0.00,,,0.00,0,LWC V2.00 B727,2013-03-08 10:07:00,
2013-03-08 03:12:00,58.9,31.3,29.77,SW,232,1.0,5.0,35,0.00,,,0.00,0,LWC V2.00 B727,2013-03-08 10:12:00,
2013-03-08 03:17:00,58.5,31.6,29.76,SW,232,0.0,0.0,36,0.00,,,0.00,0,LWC V2.00 B727,2013-03-08 10:17:00,
2013-03-08 03:22:00,58.4,31.6,29.75,SW,232,0.0,3.0,36,0.00,,,0.00,0,LWC V2.00 B727,2013-03-08 10:22:00,
2013-03-08 03:27:00,58.3,31.5,29.75,SW,232,0.0,2.0,36,0.00,,,0.00,0,LWC V2.00 B727,2013-03-08 10:27:00,
2013-03-08 03:32:00,58.3,31.5,29.75,SW,232,0.0,0.0,36,0.00,,,0.00,0,LWC V2.00 B727,2013-03-08 10:32:00,
2013-03-08 03:37:00,58.5,31.6,29.74,SSW,206,0.0,3.0,36,0.00,,,0.00,0,LWC V2.00 B727,2013-03-08 10:37:00,
2013-03-08 03:42:00,58.4,31.6,29.74,SSW,206,1.0,2.0,36,0.00,,,0.00,0,LWC V2.00 B727,2013-03-08 10:42:00,
2013-03-08 03:47:00,58.4,31.6,29.74,SSW,206,0.0,1.0,36,0.00,,,0.00,0,LWC V2.00 B727,2013-03-08 10:47:00,
2013-03-08 03:52:00,58.4,31.6,29.74,SSW,206,2.0,2.0,36,0.00,,,0.00,0,LWC V2.00 B727,2013-03-08 10:52:00,
2013-03-08 03:57:00,58.4,31.6,29.74,SSW,206,0.0,2.0,36,0.00,,,0.00,0,LWC V2.00 B727,2013-03-08 10:57:00,
2013-03-08 04:02:00,58.2,32.1,29.75,SSW,206,0.0,3.0,37,0.00,,,0.00,0,LWC V2.00 B727,2013-03-08 11:02:00,
2013-03-08 04:07:00,58.7,32.5,29.74,SSE,158,1.0,7.0,37,0.00,,,0.00,0,LWC V2.00 B727,2013-03-08 11:07:00,
2013-03-08 04:12:00,60.0,32.3,29.74,South,176,2.0,8.0,35,0.00,,,0.00,0,LWC V2.00 B727,2013-03-08 11:12:00,
2013-03-08 04:17:00,60.6,32.1,29.74,SSW,196,0.0,5.0,34,0.00,,,0.00,0,LWC V2.00 B727,2013-03-08 11:17:00,
2013-03-08 04:22:00,60.5,32.7,29.73,SSE,151,4.0,10.0,35,0.00,,,0.00,0,LWC V2.00 B727,2013-03-08 11:22:00,
2013-03-08 04:27:00,60.5,33.4,29.73,SSE,159,0.0,6.0,36,0.00,,,0.00,0,LWC V2.00 B727,2013-03-08 11:27:00,
2013-03-08 04:32:00,60.4,34.0,29.73,SSE,149,0.0,2.0,37,0.00,,,0.00,0,LWC V2.00 B727,2013-03-08 11:32:00,
2013-03-08 04:37:00,60.3,33.9,29.73,SSW,196,5.0,7.0,37,0.00,,,0.00,0,LWC V2.00 B727,2013-03-08 11:37:00,
2013-03-08 04:41:00,60.3,33.9,29.73,SSW,209,7.0,12.0,37,0.00,,,0.00,0,LWC V2.00 B727,2013-03-08 11:41:00,
2013-03-08 04:46:00,60.8,35.0,29.73,SSE,163,2.0,3.0,38,0.00,,,0.00,0,LWC V2.00 B727,2013-03-08 11:46:00,
2013-03-08 04:51:00,60.8,35.0,29.73,SW,233,8.0,13.0,38,0.00,,,0.00,0,LWC V2.00 B727,2013-03-08 11:51:00,
2013-03-08 04:56:00,61.1,34.6,29.73,South,188,3.0,11.0,37,0.00,,,0.00,0,LWC V2.00 B727,2013-03-08 11:56:00,
2013-03-08 05:01:00,61.0,34.5,29.73,SSW,194,3.0,6.0,37,0.00,,,0.00,0,LWC V2.00 B727,2013-03-08 12:01:00,
2013-03-08 05:06:00,61.0,34.5,29.72,South,190,0.0,9.0,37,0.00,,,0.00,0,LWC V2.00 B727,2013-03-08 12:06:00,
2013-03-08 05:11:00,61.2,34.7,29.72,SSW,212,6.0,9.0,37,0.00,,,0.00,0,LWC V2.00 B727,2013-03-08 12:11:00,
2013-03-08 05:16:00,61.2,34.7,29.73,SSW,207,7.0,9.0,37,0.00,,,0.00,0,LWC V2.00 B727,2013-03-08 12:16:00,
2013-03-08 05:21:00,61.1,34.6,29.72,SSW,199,5.0,9.0,37,0.00,,,0.00,0,LWC V2.00 B727,2013-03-08 12:21:00,
2013-03-08 05:26:00,61.3,34.8,29.73,SSE,149,6.0,11.0,37,0.00,,,0.00,0,LWC V2.00 B727,2013-03-08 12:26:00,
2013-03-08 05:31:00,61.1,34.6,29.73,SW,216,5.0,13.0,37,0.00,,,0.00,0,LWC V2.00 B727,2013-03-08 12:31:00,
2013-03-08 05:36:00,61.2,34.7,29.73,South,183,5.0,13.0,37,0.00,,,0.00,0,LWC V2.00 B727,2013-03-08 12:36:00,
2013-03-08 05:41:00,61.3,34.8,29.73,SSW,199,6.0,9.0,37,0.00,,,0.00,0,LWC V2.00 B727,2013-03-08 12:41:00,
2013-03-08 05:46:00,61.3,34.8,29.73,SE,132,8.0,12.0,37,0.00,,,0.00,0,LWC V2.00 B727,2013-03-08 12:46:00,
2013-03-08 05:51:00,61.2,34.7,29.73,SSE,166,1.0,8.0,37,0.00,,,0.00,0,LWC V2.00 B727,2013-03-08 12:51:00,
2013-03-08 05:56:00,60.9,34.5,29.73,SSW,202,2.0,7.0,37,0.00,,,0.00,0,LWC V2.00 B727,2013-03-08 12:56:00,
2013-03-08 06:01:00,60.8,35.0,29.73,South,179,0.0,3.0,38,0.00,,,0.00,0,LWC V2.00 B727,2013-03-08 13:01:00,
2013-03-08 06:06:00,60.8,35.0,29.73,SSW,199,7.0,12.0,38,0.00,,,0.00,0,LWC V2.00 B727,2013-03-08 13:06:00,
2013-03-08 06:11:00,61.0,35.2,29.73,SSW,197,5.0,11.0,38,0.00,,,0.00,0,LWC V2.00 B727,2013-03-08 13:11:00,
2013-03-08 06:16:00,61.0,35.9,29.73,South,188,6.0,7.0,39,0.00,,,0.00,0,LWC V2.00 B727,2013-03-08 13:16:00,
2013-03-08 06:21:00,60.8,35.0,29.73,SSW,211,7.0,9.0,38,0.00,,,0.00,0,LWC V2.00 B727,2013-03-08 13:21:00,
2013-03-08 06:26:00,60.7,34.9,29.73,SSE,159,3.0,13.0,38,0.00,,,0.00,0,LWC V2.00 B727,2013-03-08 13:26:00,
2013-03-08 06:31:00,60.6,35.5,29.73,SSW,206,8.0,15.0,39,0.00,,,0.00,0,LWC V2.00 B727,2013-03-08 13:31:00,
2013-03-08 06:36:00,60.5,36.1,29.73,SW,225,8.0,16.0,40,0.00,,,0.00,0,LWC V2.00 B727,2013-03-08 13:36:00,
2013-03-08 06:41:00,60.3,35.9,29.73,South,187,8.0,14.0,40,0.00,,,0.00,0,LWC V2.00 B727,2013-03-08 13:41:00,
2013-03-08 06:46:00,60.2,35.8,29.73,South,180,9.0,17.0,40,0.00,,,0.00,0,LWC V2.00 B727,2013-03-08 13:46:00,
2013-03-08 06:51:00,60.2,35.8,29.72,SSW,210,12.0,16.0,40,0.00,,,0.00,0,LWC V2.00 B727,2013-03-08 13:51:00,
2013-03-08 06:56:00,60.2,35.8,29.73,SSW,208,13.0,15.0,40,0.00,,,0.00,0,LWC V2.00 B727,2013-03-08 13:56:00,
2013-03-08 07:01:00,60.1,36.3,29.73,SSW,212,10.0,17.0,41,0.00,,,0.00,0,LWC V2.00 B727,2013-03-08 14:01:00,
2013-03-08 07:06:00,59.9,36.1,29.73,South,190,3.0,13.0,41,0.00,,,0.00,0,LWC V2.00 B727,2013-03-08 14:06:00,
2013-03-08 07:11:00,59.7,36.6,29.73,SSW,205,6.0,11.0,42,0.00,,,0.00,5,LWC V2.00 B727,2013-03-08 14:11:00,
2013-03-08 07:16:00,59.6,36.5,29.73,SSW,208,12.0,17.0,42,0.00,,,0.00,11,LWC V2.00 B727,2013-03-08 14:16:00,
2013-03-08 07:21:00,59.5,36.4,29.73,SSW,209,7.0,11.0,42,0.00,,,0.00,18,LWC V2.00 B727,2013-03-08 14:21:00,
2013-03-08 07:26:00,59.4,36.9,29.73,SW,227,9.0,9.0,43,0.00,,,0.00,16,LWC V2.00 B727,2013-03-08 14:26:00,
2013-03-08 07:31:00,59.3,36.8,29.73,SSW,208,14.0,15.0,43,0.00,,,0.00,18,LWC V2.00 B727,2013-03-08 14:31:00,
2013-03-08 07:36:00,59.1,37.2,29.73,South,188,12.0,13.0,44,0.00,,,0.00,21,LWC V2.00 B727,2013-03-08 14:36:00,
2013-03-08 07:41:00,59.1,37.2,29.73,SSE,160,7.0,12.0,44,0.00,,,0.00,30,LWC V2.00 B727,2013-03-08 14:41:00,
2013-03-08 07:46:00,59.0,37.7,29.73,SSW,199,13.0,19.0,45,0.00,,,0.00,62,LWC V2.00 B727,2013-03-08 14:46:00,
2013-03-08 07:51:00,59.0,37.7,29.73,South,175,6.0,13.0,45,0.00,,,0.00,44,LWC V2.00 B727,2013-03-08 14:51:00,
2013-03-08 07:56:00,59.1,37.8,29.74,South,182,8.0,16.0,45,0.00,,,0.00,30,LWC V2.00 B727,2013-03-08 14:56:00,
2013-03-08 08:01:00,59.0,37.7,29.74,South,183,2.0,3.0,45,0.00,,,0.00,33,LWC V2.00 B727,2013-03-08 15:01:00,
2013-03-08 08:06:00,58.6,38.4,29.74,SSE,165,3.0,8.0,47,0.00,,,0.00,81,LWC V2.00 B727,2013-03-08 15:06:00,
2013-03-08 08:11:00,58.5,38.9,29.73,SSE,158,4.0,14.0,48,0.00,,,0.00,195,LWC V2.00 B727,2013-03-08 15:11:00,
2013-03-08 08:16:00,58.8,39.2,29.73,SE,144,6.0,14.0,48,0.00,,,0.00,214,LWC V2.00 B727,2013-03-08 15:16:00,
2013-03-08 08:21:00,59.0,38.8,29.73,South,176,3.0,17.0,47,0.00,,,0.00,323,LWC V2.00 B727,2013-03-08 15:21:00,
2013-03-08 08:26:00,59.3,39.1,29.73,South,177,6.0,13.0,47,0.00,,,0.00,172,LWC V2.00 B727,2013-03-08 15:26:00,
2013-03-08 08:31:00,59.1,38.9,29.73,SSW,213,6.0,8.0,47,0.00,,,0.00,86,LWC V2.00 B727,2013-03-08 15:31:00,
2013-03-08 08:36:00,58.8,39.2,29.73,SSE,151,8.0,11.0,48,0.00,,,0.00,114,LWC V2.00 B727,2013-03-08 15:36:00,
2013-03-08 08:41:00,59.0,39.3,29.73,SSE,154,5.0,15.0,48,0.00,,,0.00,374,LWC V2.00 B727,2013-03-08 15:41:00,
2013-03-08 08:46:00,59.6,39.3,29.73,South,189,8.0,13.0,47,0.00,,,0.00,383,LWC V2.00 B727,2013-03-08 15:46:00,
2013-03-08 08:51:00,60.1,39.8,29.73,South,186,6.0,12.0,47,0.00,,,0.00,529,LWC V2.00 B727,2013-03-08 15:51:00,
2013-03-08 08:56:00,59.9,39.6,29.73,SSE,155,6.0,7.0,47,0.00,,,0.00,134,LWC V2.00 B727,2013-03-08 15:56:00,
2013-03-08 09:01:00,59.8,40.1,29.73,West,261,4.0,15.0,48,0.00,,,0.00,432,LWC V2.00 B727,2013-03-08 16:01:00,
2013-03-08 09:06:00,60.7,40.3,29.72,South,190,7.0,19.0,47,0.00,,,0.00,517,LWC V2.00 B727,2013-03-08 16:06:00,
2013-03-08 09:11:00,60.9,40.5,29.73,SSE,163,4.0,16.0,47,0.00,,,0.00,515,LWC V2.00 B727,2013-03-08 16:11:00,
2013-03-08 09:16:00,61.1,40.2,29.72,SSW,193,6.0,16.0,46,0.00,,,0.00,468,LWC V2.00 B727,2013-03-08 16:16:00,
2013-03-08 09:21:00,61.6,40.6,29.72,SSW,200,7.0,17.0,46,0.00,,,0.00,707,LWC V2.00 B727,2013-03-08 16:21:00,
2013-03-08 09:26:00,62.2,40.0,29.72,SSW,213,6.0,17.0,44,0.00,,,0.00,719,LWC V2.00 B727,2013-03-08 16:26:00,
2013-03-08 09:31:00,61.6,40.0,29.72,SSE,157,6.0,18.0,45,0.00,,,0.00,450,LWC V2.00 B727,2013-03-08 16:31:00,
2013-03-08 09:36:00,61.4,39.9,29.72,SSW,201,6.0,12.0,45,0.00,,,0.00,267,LWC V2.00 B727,2013-03-08 16:36:00,
2013-03-08 09:41:00,61.8,40.8,29.72,SSE,163,3.0,7.0,46,0.00,,,0.00,418,LWC V2.00 B727,2013-03-08 16:41:00,
2013-03-08 09:46:00,61.4,40.4,29.72,SSE,152,11.0,13.0,46,0.00,,,0.00,207,LWC V2.00 B727,2013-03-08 16:46:00,
2013-03-08 09:51:00,60.8,39.9,29.71,South,172,2.0,10.0,46,0.00,,,0.00,151,LWC V2.00 B727,2013-03-08 16:51:00,
2013-03-08 09:56:00,60.5,40.2,29.70,SSW,209,8.0,16.0,47,0.00,,,0.00,167,LWC V2.00 B727,2013-03-08 16:56:00,
2013-03-08 10:01:00,60.4,40.6,29.71,SW,214,11.0,15.0,48,0.00,,,0.00,144,LWC V2.00 B727,2013-03-08 17:01:00,
2013-03-08 10:06:00,58.9,43.7,29.72,SSW,202,7.0,12.0,57,0.00,,,0.00,83,LWC V2.00 B727,2013-03-08 17:06:00,
2013-03-08 10:11:00,57.6,43.8,29.72,SSE,167,9.0,10.0,60,0.00,,,0.01,149,LWC V2.00 B727,2013-03-08 17:11:00,
2013-03-08 10:16:00,57.2,44.3,29.71,SW,226,6.0,8.0,62,0.00,,,0.01,91,LWC V2.00 B727,2013-03-08 17:16:00,
2013-03-08 10:21:00,57.5,44.2,29.72,WSW,238,4.0,16.0,61,0.00,,,0.01,28,LWC V2.00 B727,2013-03-08 17:21:00,
2013-03-08 10:26:00,55.9,45.5,29.71,West,275,2.0,5.0,68,0.05,,,0.02,46,LWC V2.00 B727,2013-03-08 17:26:00,
2013-03-08 10:31:00,54.2,45.7,29.72,WSW,249,4.0,9.0,73,0.64,,,0.04,33,LWC V2.00 B727,2013-03-08 17:31:00,
2013-03-08 10:36:00,52.3,45.0,29.73,WSW,244,3.0,9.0,76,0.24,,,0.08,40,LWC V2.00 B727,2013-03-08 17:36:00,
2013-03-08 10:41:00,52.2,46.5,29.73,SW,217,4.0,5.0,81,0.13,,,0.09,211,LWC V2.00 B727,2013-03-08 17:41:00,
2013-03-08 10:46:00,52.5,46.8,29.73,SSW,211,6.0,7.0,81,0.06,,,0.09,163,LWC V2.00 B727,2013-03-08 17:46:00,
2013-03-08 10:51:00,52.9,47.6,29.73,SW,234,7.0,9.0,82,0.04,,,0.09,135,LWC V2.00 B727,2013-03-08 17:51:00,
2013-03-08 10:56:00,53.2,47.5,29.73,WSW,245,5.0,8.0,81,0.00,,,0.09,81,LWC V2.00 B727,2013-03-08 17:56:00,
2013-03-08 11:01:00,53.2,47.8,29.73,WSW,242,3.0,6.0,82,0.00,,,0.09,123,LWC V2.00 B727,2013-03-08 18:01:00,
2013-03-08 11:06:00,53.3,47.6,29.73,WSW,243,3.0,10.0,81,0.00,,,0.09,90,LWC V2.00 B727,2013-03-08 18:06:00,
2013-03-08 11:11:00,53.4,47.7,29.73,SW,231,3.0,7.0,81,0.00,,,0.09,105,LWC V2.00 B727,2013-03-08 18:11:00,
2013-03-08 11:16:00,53.5,47.8,29.73,SSW,211,2.0,8.0,81,0.00,,,0.09,134,LWC V2.00 B727,2013-03-08 18:16:00,
2013-03-08 11:21:00,53.7,48.0,29.74,SW,234,9.0,11.0,81,0.00,,,0.09,120,LWC V2.00 B727,2013-03-08 18:21:00,
2013-03-08 11:26:00,53.6,47.6,29.73,SW,233,3.0,7.0,80,0.00,,,0.09,121,LWC V2.00 B727,2013-03-08 18:26:00,
2013-03-08 11:31:00,53.7,47.3,29.73,SW,229,4.0,13.0,79,0.00,,,0.09,144,LWC V2.00 B727,2013-03-08 18:31:00,
2013-03-08 11:36:00,53.9,47.5,29.72,SW,232,1.0,4.0,79,0.00,,,0.09,77,LWC V2.00 B727,2013-03-08 18:36:00,
2013-03-08 11:41:00,53.8,47.4,29.72,WSW,256,4.0,6.0,79,0.00,,,0.09,44,LWC V2.00 B727,2013-03-08 18:41:00,
2013-03-08 11:46:00,53.8,47.8,29.72,SSW,210,5.0,7.0,80,0.00,,,0.10,74,LWC V2.00 B727,2013-03-08 18:46:00,
2013-03-08 11:51:00,53.7,48.0,29.72,South,185,2.0,7.0,81,0.09,,,0.11,209,LWC V2.00 B727,2013-03-08 18:51:00,
2013-03-08 11:56:00,53.5,48.5,29.73,SSW,204,6.0,10.0,83,0.09,,,0.11,227,LWC V2.00 B727,2013-03-08 18:56:00,
2013-03-08 12:01:00,53.6,48.6,29.72,SSW,206,7.0,7.0,83,0.05,,,0.11,137,LWC V2.00 B727,2013-03-08 19:01:00,
2013-03-08 12:06:00,53.6,48.6,29.72,SW,220,5.0,5.0,83,0.04,,,0.11,53,LWC V2.00 B727,2013-03-08 19:06:00,
2013-03-08 12:11:00,53.6,48.2,29.70,SW,224,1.0,5.0,82,0.00,,,0.11,28,LWC V2.00 B727,2013-03-08 19:11:00,
2013-03-08 12:16:00,53.6,48.6,29.70,SW,226,2.0,2.0,83,0.00,,,0.12,12,LWC V2.00 B727,2013-03-08 19:16:00,
2013-03-08 12:21:00,53.3,48.6,29.71,SSW,210,10.0,11.0,84,0.27,,,0.17,18,LWC V2.00 B727,2013-03-08 19:21:00,
2013-03-08 12:26:00,52.5,48.1,29.72,SW,231,5.0,10.0,85,0.48,,,0.21,98,LWC V2.00 B727,2013-03-08 19:26:00,
2013-03-08 12:31:00,53.0,48.9,29.72,SSW,209,7.0,10.0,86,0.11,,,0.21,332,LWC V2.00 B727,2013-03-08 19:31:00,
2013-03-08 12:36:00,54.2,50.4,29.72,WSW,242,7.0,9.0,87,0.06,,,0.21,1172,LWC V2.00 B727,2013-03-08 19:36:00,
2013-03-08 12:42:00,55.7,50.9,29.71,West,279,2.0,9.0,84,0.04,,,0.21,1172,LWC V2.00 B727,2013-03-08 19:42:00,
2013-03-08 12:47:00,55.1,48.7,29.70,West,263,5.0,8.0,79,0.00,,,0.21,287,LWC V2.00 B727,2013-03-08 19:47:00,
2013-03-08 12:52:00,55.2,49.5,29.69,NW,304,3.0,10.0,81,0.00,,,0.21,645,LWC V2.00 B727,2013-03-08 19:52:00,
2013-03-08 12:57:00,55.4,49.7,29.69,West,279,5.0,7.0,81,0.00,,,0.21,469,LWC V2.00 B727,2013-03-08 19:57:00,
2013-03-08 13:02:00,56.3,50.2,29.68,WSW,244,7.0,9.0,80,0.00,,,0.21,893,LWC V2.00 B727,2013-03-08 20:02:00,
2013-03-08 13:07:00,57.2,50.1,29.68,WSW,251,4.0,10.0,77,0.00,,,0.21,788,LWC V2.00 B727,2013-03-08 20:07:00,
2013-03-08 13:12:00,57.0,49.2,29.67,West,267,3.0,9.0,75,0.00,,,0.21,93,LWC V2.00 B727,2013-03-08 20:12:00,
2013-03-08 13:17:00,56.3,48.1,29.67,SW,231,2.0,13.0,74,0.00,,,0.21,144,LWC V2.00 B727,2013-03-08 20:17:00,
2013-03-08 13:22:00,55.5,48.8,29.68,SW,227,9.0,12.0,78,0.00,,,0.22,207,LWC V2.00 B727,2013-03-08 20:22:00,
2013-03-08 13:27:00,55.0,48.6,29.68,SW,236,10.0,12.0,79,0.09,,,0.23,116,LWC V2.00 B727,2013-03-08 20:27:00,
2013-03-08 13:32:00,54.9,48.8,29.68,SW,214,6.0,11.0,80,0.07,,,0.23,315,LWC V2.00 B727,2013-03-08 20:32:00,
2013-03-08 13:37:00,55.4,49.0,29.67,SSW,203,10.0,13.0,79,0.05,,,0.23,239,LWC V2.00 B727,2013-03-08 20:37:00,
2013-03-08 13:42:00,56.2,47.7,29.67,SSE,159,3.0,14.0,73,0.00,,,0.23,218,LWC V2.00 B727,2013-03-08 20:42:00,
2013-03-08 13:47:00,56.5,47.2,29.67,SSW,208,8.0,13.0,71,0.00,,,0.23,227,LWC V2.00 B727,2013-03-08 20:47:00,
2013-03-08 13:52:00,56.6,46.2,29.67,SSE,165,12.0,12.0,68,0.00,,,0.23,482,LWC V2.00 B727,2013-03-08 20:52:00,
2013-03-08 13:57:00,58.2,47.3,29.67,East,86,5.0,15.0,67,0.00,,,0.23,888,LWC V2.00 B727,2013-03-08 20:57:00,
2013-03-08 14:02:00,58.9,45.9,29.66,SSW,194,7.0,16.0,62,0.00,,,0.23,311,LWC V2.00 B727,2013-03-08 21:02:00,
2013-03-08 14:07:00,58.2,43.5,29.65,SSW,204,7.0,19.0,58,0.00,,,0.23,262,LWC V2.00 B727,2013-03-08 21:07:00,
2013-03-08 14:12:00,57.9,43.7,29.66,South,190,4.0,20.0,59,0.00,,,0.23,137,LWC V2.00 B727,2013-03-08 21:12:00,
2013-03-08 14:17:00,57.7,43.5,29.65,South,173,5.0,15.0,59,0.00,,,0.23,86,LWC V2.00 B727,2013-03-08 21:17:00,
2013-03-08 14:22:00,57.6,43.4,29.65,SSW,212,3.0,14.0,59,0.00,,,0.23,109,LWC V2.00 B727,2013-03-08 21:22:00,
2013-03-08 14:27:00,57.4,44.5,29.64,SW,217,9.0,13.0,62,0.00,,,0.23,33,LWC V2.00 B727,2013-03-08 21:27:00,
2013-03-08 14:32:00,56.9,44.8,29.67,WSW,237,12.0,15.0,64,0.00,,,0.24,19,LWC V2.00 B727,2013-03-08 21:32:00,
2013-03-08 14:37:00,54.7,46.2,29.66,West,270,10.0,20.0,73,0.00,,,0.24,32,LWC V2.00 B727,2013-03-08 21:37:00,
2013-03-08 14:42:00,52.1,45.5,29.68,WSW,251,8.0,17.0,78,0.05,,,0.25,51,LWC V2.00 B727,2013-03-08 21:42:00,
2013-03-08 14:47:00,50.8,45.2,29.69,SW,226,11.0,19.0,81,0.05,,,0.25,81,LWC V2.00 B727,2013-03-08 21:47:00,
2013-03-08 14:52:00,50.7,45.7,29.69,WSW,238,12.0,15.0,83,0.05,,,0.25,100,LWC V2.00 B727,2013-03-08 21:52:00,
2013-03-08 14:57:00,51.0,46.3,29.68,SW,221,9.0,10.0,84,0.04,,,0.25,209,LWC V2.00 B727,2013-03-08 21:57:00,
2013-03-08 15:02:00,51.2,45.9,29.69,SW,229,12.0,13.0,82,0.00,,,0.25,109,LWC V2.00 B727,2013-03-08 22:02:00,
2013-03-08 15:07:00,51.5,45.5,29.70,SW,218,9.0,20.0,80,0.00,,,0.25,185,LWC V2.00 B727,2013-03-08 22:07:00,
2013-03-08 15:12:00,52.0,44.7,29.70,SSW,211,7.0,15.0,76,0.00,,,0.25,81,LWC V2.00 B727,2013-03-08 22:12:00,
2013-03-08 15:17:00,52.3,44.6,29.70,SSW,209,8.0,15.0,75,0.00,,,0.25,79,LWC V2.00 B727,2013-03-08 22:17:00,
2013-03-08 15:22:00,52.6,43.8,29.70,SSW,213,11.0,18.0,72,0.00,,,0.25,67,LWC V2.00 B727,2013-03-08 22:22:00,
2013-03-08 15:27:00,52.9,43.0,29.70,WSW,253,7.0,14.0,69,0.00,,,0.25,65,LWC V2.00 B727,2013-03-08 22:27:00,
2013-03-08 15:32:00,53.1,42.8,29.70,SW,222,18.0,20.0,68,0.00,,,0.25,104,LWC V2.00 B727,2013-03-08 22:32:00,
2013-03-08 15:37:00,53.3,41.8,29.70,SSW,212,11.0,22.0,65,0.00,,,0.25,56,LWC V2.00 B727,2013-03-08 22:37:00,
2013-03-08 15:42:00,53.5,41.2,29.71,SW,215,8.0,22.0,63,0.00,,,0.25,70,LWC V2.00 B727,2013-03-08 22:42:00,
2013-03-08 15:47:00,53.6,40.9,29.70,SSW,206,15.0,25.0,62,0.00,,,0.25,44,LWC V2.00 B727,2013-03-08 22:47:00,
2013-03-08 15:52:00,53.8,41.1,29.70,SW,218,14.0,26.0,62,0.00,,,0.25,60,LWC V2.00 B727,2013-03-08 22:52:00,
2013-03-08 15:57:00,53.9,41.6,29.71,SW,223,13.0,17.0,63,0.00,,,0.25,58,LWC V2.00 B727,2013-03-08 22:57:00,
2013-03-08 16:02:00,53.8,41.5,29.70,SSW,210,19.0,23.0,63,0.00,,,0.25,39,LWC V2.00 B727,2013-03-08 23:02:00,
2013-03-08 16:07:00,53.2,42.5,29.71,SW,228,11.0,21.0,67,0.00,,,0.26,178,LWC V2.00 B727,2013-03-08 23:07:00,
2013-03-08 16:12:00,52.7,42.8,29.71,SSW,202,6.0,21.0,69,0.00,,,0.26,132,LWC V2.00 B727,2013-03-08 23:12:00,
2013-03-08 16:17:00,52.6,43.1,29.72,SSW,212,9.0,12.0,70,0.00,,,0.26,76,LWC V2.00 B727,2013-03-08 23:17:00,
2013-03-08 16:22:00,52.6,43.8,29.72,South,189,9.0,15.0,72,0.00,,,0.26,118,LWC V2.00 B727,2013-03-08 23:22:00,
2013-03-08 16:27:00,52.7,43.6,29.72,SSE,161,4.0,16.0,71,0.00,,,0.26,146,LWC V2.00 B727,2013-03-08 23:27:00,
2013-03-08 16:32:00,53.0,43.5,29.72,SSW,204,8.0,14.0,70,0.00,,,0.26,193,LWC V2.00 B727,2013-03-08 23:32:00,
2013-03-08 16:37:00,53.4,43.1,29.72,SSW,207,7.0,7.0,68,0.00,,,0.26,158,LWC V2.00 B727,2013-03-08 23:37:00,
2013-03-08 16:42:00,53.6,42.5,29.72,SSW,200,10.0,13.0,66,0.00,,,0.26,148,LWC V2.00 B727,2013-03-08 23:42:00,
2013-03-08 16:47:00,53.7,42.6,29.72,South,190,9.0,12.0,66,0.00,,,0.26,69,LWC V2.00 B727,2013-03-08 23:47:00,
2013-03-08 16:52:00,53.6,42.5,29.73,SW,227,7.0,13.0,66,0.00,,,0.26,44,LWC V2.00 B727,2013-03-08 23:52:00,
2013-03-08 16:57:00,52.6,40.4,29.73,SW,221,7.0,15.0,63,0.00,,,0.26,21,LWC V2.00 B727,2013-03-08 23:57:00,
2013-03-08 17:02:00,51.8,40.8,29.73,West,259,9.0,14.0,66,0.00,,,0.26,44,LWC V2.00 B727,2013-03-09 00:02:00,
2013-03-08 17:07:00,51.4,40.8,29.73,SW,220,15.0,15.0,67,0.00,,,0.26,40,LWC V2.00 B727,2013-03-09 00:07:00,
2013-03-08 17:12:00,51.2,41.8,29.72,WSW,238,8.0,17.0,70,0.00,,,0.27,26,LWC V2.00 B727,2013-03-09 00:12:00,
2013-03-08 17:17:00,49.9,42.3,29.73,WSW,250,9.0,20.0,75,0.39,,,0.30,42,LWC V2.00 B727,2013-03-09 00:17:00,
2013-03-08 17:22:00,49.1,42.5,29.74,SW,234,11.0,18.0,78,0.11,,,0.31,116,LWC V2.00 B727,2013-03-09 00:22:00,
2013-03-08 17:27:00,49.1,42.5,29.74,SW,229,6.0,12.0,78,0.10,,,0.31,58,LWC V2.00 B727,2013-03-09 00:27:00,
2013-03-08 17:32:00,49.5,42.6,29.74,SW,236,4.0,13.0,77,0.05,,,0.31,49,LWC V2.00 B727,2013-03-09 00:32:00,
2013-03-08 17:37:00,49.7,42.4,29.74,SW,228,8.0,16.0,76,0.04,,,0.31,25,LWC V2.00 B727,2013-03-09 00:37:00,
2013-03-08 17:42:00,50.0,42.0,29.75,SSW,196,7.0,12.0,74,0.00,,,0.31,26,LWC V2.00 B727,2013-03-09 00:42:00,
2013-03-08 17:47:00,50.1,42.1,29.75,SW,217,5.0,7.0,74,0.00,,,0.31,18,LWC V2.00 B727,2013-03-09 00:47:00,
2013-03-08 17:52:00,50.1,41.4,29.75,SW,216,7.0,9.0,72,0.00,,,0.31,7,LWC V2.00 B727,2013-03-09 00:52:00,
2013-03-08 17:57:00,50.3,41.3,29.75,SW,221,4.0,7.0,71,0.00,,,0.31,12,LWC V2.00 B727,2013-03-09 00:57:00,
2013-03-08 18:02:00,50.2,42.2,29.76,SW,235,5.0,6.0,74,0.00,,,0.31,11,LWC V2.00 B727,2013-03-09 01:02:00,
2013-03-08 18:07:00,49.9,41.6,29.77,SSW,209,6.0,11.0,73,0.00,,,0.31,0,LWC V2.00 B727,2013-03-09 01:07:00,
2013-03-08 18:12:00,49.6,41.7,29.77,SW,221,9.0,9.0,74,0.00,,,0.31,0,LWC V2.00 B727,2013-03-09 01:12:00,
2013-03-08 18:17:00,49.4,41.5,29.77,SW,228,6.0,12.0,74,0.00,,,0.31,0,LWC V2.00 B727,2013-03-09 01:17:00,
2013-03-08 18:22:00,49.1,41.5,29.78,WSW,243,2.0,10.0,75,0.00,,,0.31,0,LWC V2.00 B727,2013-03-09 01:22:00,
2013-03-08 18:27:00,48.7,41.5,29.78,SW,226,4.0,11.0,76,0.00,,,0.32,0,LWC V2.00 B727,2013-03-09 01:27:00,
2013-03-08 18:32:00,48.1,41.9,29.78,WNW,302,0.0,3.0,79,0.00,,,0.32,0,LWC V2.00 B727,2013-03-09 01:32:00,
2013-03-08 18:37:00,46.9,41.4,29.79,WSW,250,8.0,14.0,81,0.00,,,0.32,0,LWC V2.00 B727,2013-03-09 01:37:00,
2013-03-08 18:42:00,46.8,41.3,29.79,WSW,242,3.0,9.0,81,0.00,,,0.32,0,LWC V2.00 B727,2013-03-09 01:42:00,
2013-03-08 18:47:00,46.8,41.3,29.79,West,269,1.0,6.0,81,0.00,,,0.32,0,LWC V2.00 B727,2013-03-09 01:47:00,
2013-03-08 18:52:00,46.7,41.2,29.79,WSW,238,3.0,4.0,81,0.00,,,0.32,0,LWC V2.00 B727,2013-03-09 01:52:00,
2013-03-08 18:57:00,46.5,41.0,29.79,SW,216,2.0,5.0,81,0.00,,,0.32,0,LWC V2.00 B727,2013-03-09 01:57:00,
2013-03-08 19:02:00,46.5,41.0,29.79,SSW,202,2.0,2.0,81,0.00,,,0.32,0,LWC V2.00 B727,2013-03-09 02:02:00,
2013-03-08 19:07:00,46.4,41.2,29.79,South,188,0.0,0.0,82,0.00,,,0.32,0,LWC V2.00 B727,2013-03-09 02:07:00,
2013-03-08 19:12:00,46.1,41.2,29.79,South,188,0.0,1.0,83,0.00,,,0.32,0,LWC V2.00 B727,2013-03-09 02:12:00,
2013-03-08 19:17:00,46.0,41.1,29.79,SSW,201,0.0,3.0,83,0.00,,,0.32,0,LWC V2.00 B727,2013-03-09 02:17:00,
2013-03-08 19:22:00,45.9,41.0,29.80,SSW,202,1.0,3.0,83,0.00,,,0.32,0,LWC V2.00 B727,2013-03-09 02:22:00,
2013-03-08 19:27:00,45.9,41.0,29.79,SSW,201,1.0,2.0,83,0.00,,,0.32,0,LWC V2.00 B727,2013-03-09 02:27:00,
2013-03-08 19:32:00,45.7,41.1,29.79,SSW,194,1.0,2.0,84,0.00,,,0.32,0,LWC V2.00 B727,2013-03-09 02:32:00,
2013-03-08 19:37:00,45.5,41.3,29.79,SSW,194,0.0,2.0,85,0.00,,,0.32,0,LWC V2.00 B727,2013-03-09 02:37:00,
2013-03-08 19:42:00,45.5,41.3,29.80,SSW,195,1.0,1.0,85,0.00,,,0.32,0,LWC V2.00 B727,2013-03-09 02:42:00,
2013-03-08 19:47:00,45.6,41.4,29.80,SSW,202,4.0,4.0,85,0.00,,,0.32,0,LWC V2.00 B727,2013-03-09 02:47:00,
2013-03-08 19:52:00,45.8,41.5,29.81,NW,309,0.0,11.0,85,0.00,,,0.32,0,LWC V2.00 B727,2013-03-09 02:52:00,
2013-03-08 19:57:00,45.6,40.7,29.81,WSW,252,13.0,13.0,83,0.00,,,0.32,0,LWC V2.00 B727,2013-03-09 02:57:00,
2013-03-08 20:02:00,45.2,39.7,29.82,SW,231,13.0,13.0,81,0.00,,,0.32,0,LWC V2.00 B727,2013-03-09 03:02:00,
2013-03-08 20:07:00,44.9,39.4,29.82,WSW,240,4.0,7.0,81,0.00,,,0.32,0,LWC V2.00 B727,2013-03-09 03:07:00,
2013-03-08 20:12:00,44.7,39.2,29.82,SSW,213,7.0,13.0,81,0.00,,,0.32,0,LWC V2.00 B727,2013-03-09 03:12:00,
2013-03-08 20:17:00,44.8,39.6,29.83,WSW,242,5.0,14.0,82,0.00,,,0.32,0,LWC V2.00 B727,2013-03-09 03:17:00,
2013-03-08 20:22:00,44.6,39.5,29.83,SW,233,5.0,14.0,82,0.00,,,0.32,0,LWC V2.00 B727,2013-03-09 03:22:00,
2013-03-08 20:27:00,44.4,39.3,29.83,SSW,207,5.0,8.0,82,0.00,,,0.32,0,LWC V2.00 B727,2013-03-09 03:27:00,
2013-03-08 20:32:00,44.3,38.8,29.84,SSW,195,5.0,15.0,81,0.00,,,0.32,0,LWC V2.00 B727,2013-03-09 03:32:00,
2013-03-08 20:37:00,44.4,38.9,29.84,SSW,200,2.0,4.0,81,0.00,,,0.32,0,LWC V2.00 B727,2013-03-09 03:37:00,
2013-03-08 20:42:00,44.4,38.9,29.84,SSW,198,2.0,6.0,81,0.00,,,0.32,0,LWC V2.00 B727,2013-03-09 03:42:00,
2013-03-08 20:47:00,44.4,38.9,29.84,SSW,202,2.0,3.0,81,0.00,,,0.32,0,LWC V2.00 B727,2013-03-09 03:47:00,
2013-03-08 20:52:00,44.3,38.8,29.84,SSW,202,0.0,4.0,81,0.00,,,0.32,0,LWC V2.00 B727,2013-03-09 03:52:00,
2013-03-08 20:57:00,44.3,39.2,29.85,SSW,203,3.0,5.0,82,0.00,,,0.33,0,LWC V2.00 B727,2013-03-09 03:57:00,
2013-03-08 21:02:00,44.0,39.2,29.85,South,188,2.0,5.0,83,0.32,,,0.35,0,LWC V2.00 B727,2013-03-09 04:02:00,
2013-03-08 21:07:00,43.6,39.1,29.86,SSW,204,10.0,10.0,84,0.13,,,0.36,0,LWC V2.00 B727,2013-03-09 04:07:00,
2013-03-08 21:12:00,43.4,38.9,29.86,SW,224,8.0,12.0,84,0.09,,,0.36,0,LWC V2.00 B727,2013-03-09 04:12:00,
2013-03-08 21:17:00,43.3,38.8,29.86,SSW,207,7.0,13.0,84,0.05,,,0.36,0,LWC V2.00 B727,2013-03-09 04:17:00,
2013-03-08 21:22:00,43.2,38.7,29.87,SSW,204,4.0,10.0,84,0.04,,,0.36,0,LWC V2.00 B727,2013-03-09 04:22:00,
2013-03-08 21:27:00,43.2,39.0,29.87,SSW,213,0.0,10.0,85,0.00,,,0.36,0,LWC V2.00 B727,2013-03-09 04:27:00,
2013-03-08 21:32:00,43.2,39.0,29.88,SSW,202,1.0,5.0,85,0.00,,,0.36,0,LWC V2.00 B727,2013-03-09 04:32:00,
2013-03-08 21:37:00,43.3,38.8,29.88,SSW,198,4.0,9.0,84,0.00,,,0.36,0,LWC V2.00 B727,2013-03-09 04:37:00,
2013-03-08 21:42:00,43.5,39.0,29.88,SSW,211,5.0,10.0,84,0.00,,,0.36,0,LWC V2.00 B727,2013-03-09 04:42:00,
2013-03-08 21:47:00,43.7,38.9,29.88,SW,220,8.0,10.0,83,0.00,,,0.36,0,LWC V2.00 B727,2013-03-09 04:47:00,
2013-03-08 21:52:00,43.8,38.7,29.89,SW,229,3.0,8.0,82,0.00,,,0.36,0,LWC V2.00 B727,2013-03-09 04:52:00,
2013-03-08 21:57:00,43.8,38.7,29.89,SW,218,5.0,8.0,82,0.00,,,0.37,0,LWC V2.00 B727,2013-03-09 04:57:00,
2013-03-08 22:00:00,43.8,39.0,29.89,SSW,196,6.0,8.0,83,0.00,,,0.37,0,LWC V2.00 B727,2013-03-09 05:00:00,
2013-03-08 22:05:00,43.7,38.9,29.89,SW,219,3.0,9.0,83,0.00,,,0.37,0,LWC V2.00 B727,2013-03-09 05:05:00,
2013-03-08 22:10:00,43.5,38.7,29.90,SW,217,5.0,7.0,83,0.00,,,0.37,0,LWC V2.00 B727,2013-03-09 05:10:00,
2013-03-08 22:15:00,43.3,38.8,29.90,SSW,210,7.0,7.0,84,0.00,,,0.37,0,LWC V2.00 B727,2013-03-09 05:15:00,
2013-03-08 22:20:00,43.0,38.5,29.90,SW,218,2.0,3.0,84,0.00,,,0.37,0,LWC V2.00 B727,2013-03-09 05:20:00,
2013-03-08 22:25:00,42.8,38.6,29.90,SW,218,0.0,1.0,85,0.00,,,0.37,0,LWC V2.00 B727,2013-03-09 05:25:00,
2013-03-08 22:30:00,42.5,38.6,29.90,SW,216,0.0,0.0,86,0.00,,,0.37,0,LWC V2.00 B727,2013-03-09 05:30:00,
2013-03-08 22:35:00,42.3,38.4,29.90,SSE,159,0.0,1.0,86,0.00,,,0.37,0,LWC V2.00 B727,2013-03-09 05:35:00,
2013-03-08 22:40:00,42.1,38.5,29.90,SSE,162,0.0,0.0,87,0.00,,,0.37,0,LWC V2.00 B727,2013-03-09 05:40:00,
2013-03-08 22:45:00,41.9,38.3,29.90,SSE,161,0.0,2.0,87,0.00,,,0.37,0,LWC V2.00 B727,2013-03-09 05:45:00,
2013-03-08 22:50:00,41.8,38.2,29.89,SSE,161,0.0,3.0,87,0.00,,,0.37,0,LWC V2.00 B727,2013-03-09 05:50:00,
2013-03-08 22:55:00,41.6,38.0,29.90,SSW,192,2.0,2.0,87,0.00,,,0.37,0,LWC V2.00 B727,2013-03-09 05:55:00,
2013-03-08 23:00:00,41.5,37.9,29.90,SSW,192,0.0,3.0,87,0.00,,,0.37,0,LWC V2.00 B727,2013-03-09 06:00:00,
2013-03-08 23:05:00,41.4,37.8,29.89,SSW,192,0.0,2.0,87,0.00,,,0.37,0,LWC V2.00 B727,2013-03-09 06:05:00,
2013-03-08 23:10:00,41.4,37.8,29.90,SSW,192,0.0,0.0,87,0.00,,,0.37,0,LWC V2.00 B727,2013-03-09 06:10:00,
2013-03-08 23:15:00,41.4,37.8,29.90,SSW,192,3.0,3.0,87,0.00,,,0.37,0,LWC V2.00 B727,2013-03-09 06:15:00,
2013-03-08 23:20:00,41.4,37.8,29.90,South,191,0.0,1.0,87,0.00,,,0.37,0,LWC V2.00 B727,2013-03-09 06:20:00,
2013-03-08 23:25:00,41.3,37.7,29.90,South,191,0.0,0.0,87,0.00,,,0.37,0,LWC V2.00 B727,2013-03-09 06:25:00,
2013-03-08 23:30:00,41.2,37.6,29.90,South,191,0.0,0.0,87,0.00,,,0.37,0,LWC V2.00 B727,2013-03-09 06:30:00,
2013-03-08 23:35:00,41.1,37.8,29.90,South,191,0.0,0.0,88,0.00,,,0.37,0,LWC V2.00 B727,2013-03-09 06:35:00,
2013-03-08 23:40:00,41.1,37.8,29.91,South,191,0.0,0.0,88,0.00,,,0.37,0,LWC V2.00 B727,2013-03-09 06:40:00,
2013-03-08 23:45:00,41.2,37.9,29.91,South,191,0.0,0.0,88,0.00,,,0.37,0,LWC V2.00 B727,2013-03-09 06:45:00,
2013-03-08 23:50:00,41.3,38.0,29.91,South,191,0.0,1.0,88,0.00,,,0.37,0,LWC V2.00 B727,2013-03-09 06:50:00,
2013-03-08 23:52:00,41.3,38.0,29.91,South,191,0.0,0.0,88,0.00,,,0.37,0,LWC V2.00 B727,2013-03-09 06:52:00,
2013-03-08 23:57:00,41.4,38.1,29.91,South,191,0.0,0.0,88,0.00,,,0.37,0,LWC V2.00 B727,2013-03-09 06:57:00,